Time;durP1;ratioP1;P1;durP2;ratioP2;P2;SDS_P1;SDS_P2;PMS_P1;PMS_P2;Temp;Humidity;BMP_temperature;BMP_pressure;BME280_temperature;BME280_humidity;BME280_pressure;Samples;Min_cycle;Max_cycle;Signal;HPM_P1;HPM_P2
2022/01/07 00:02:25;;;;;;;11.10;3.83;;;0.70;99.90;;;;;;5030560;28;20259;-74
2022/01/07 00:04:51;;;;;;;8.83;4.30;;;0.60;99.90;;;;;;5030909;28;20306;-74
2022/01/07 00:07:16;;;;;;;8.17;4.30;;;0.60;99.90;;;;;;5030834;28;20574;-75
2022/01/07 00:09:42;;;;;;;13.10;4.30;;;0.50;99.90;;;;;;5030109;28;20529;-74
2022/01/07 00:12:08;;;;;;;11.37;4.50;;;0.50;99.90;;;;;;5031313;28;20180;-74
2022/01/07 00:14:33;;;;;;;13.77;4.80;;;0.50;99.90;;;;;;5030668;28;20211;-75
2022/01/07 00:16:59;;;;;;;11.40;4.40;;;0.50;99.90;;;;;;5025478;28;20203;-74
2022/01/07 00:19:25;;;;;;;9.60;4.73;;;0.50;99.90;;;;;;5002946;28;20216;-74
2022/01/07 00:21:50;;;;;;;10.43;4.27;;;0.40;99.90;;;;;;5031810;28;20613;-74
2022/01/07 00:24:16;;;;;;;7.63;4.17;;;0.50;99.90;;;;;;5031076;28;20730;-75
2022/01/07 00:26:41;;;;;;;10.93;4.20;;;0.50;99.90;;;;;;5030882;28;20217;-74
2022/01/07 00:29:07;;;;;;;9.23;4.40;;;0.50;99.90;;;;;;5032143;28;20552;-74
2022/01/07 00:31:32;;;;;;;8.53;4.40;;;0.50;99.90;;;;;;5030795;28;20207;-74
2022/01/07 00:33:58;;;;;;;11.20;3.93;;;0.60;99.90;;;;;;5014879;28;20561;-75
2022/01/07 00:36:23;;;;;;;9.40;4.20;;;0.60;99.90;;;;;;5030992;28;20195;-74
2022/01/07 00:38:49;;;;;;;9.97;4.73;;;0.60;99.90;;;;;;5032235;28;20186;-74
2022/01/07 00:41:14;;;;;;;12.80;4.77;;;0.50;99.90;;;;;;5035237;28;20250;-75
2022/01/07 00:43:40;;;;;;;14.37;5.23;;;0.50;99.90;;;;;;5030199;28;20221;-74
2022/01/07 00:46:05;;;;;;;10.53;4.13;;;0.50;99.90;;;;;;5031136;28;20610;-74
2022/01/07 00:48:31;;;;;;;10.47;5.10;;;0.50;99.90;;;;;;5023380;28;20220;-75
2022/01/07 00:50:57;;;;;;;13.40;4.03;;;0.60;99.90;;;;;;5030529;28;20337;-74
2022/01/07 00:53:22;;;;;;;14.57;4.63;;;0.60;99.90;;;;;;5029974;28;20569;-75
2022/01/07 00:55:48;;;;;;;11.40;4.53;;;0.70;99.90;;;;;;5030858;28;20225;-75
2022/01/07 00:58:13;;;;;;;10.50;4.07;;;0.70;99.90;;;;;;5029842;28;20214;-74
2022/01/07 01:00:39;;;;;;;8.90;4.60;;;0.70;99.90;;;;;;5029502;28;20225;-74
2022/01/07 01:03:05;;;;;;;13.43;4.17;;;0.60;99.90;;;;;;5030534;28;20173;-74
2022/01/07 01:05:32;;;;;;;16.37;4.00;;;0.60;99.90;;;;;;5028966;28;20247;-75
2022/01/07 01:07:58;;;;;;;13.57;4.77;;;0.60;99.90;;;;;;5030837;28;20693;-74
2022/01/07 01:10:25;;;;;;;8.97;4.00;;;0.50;99.90;;;;;;5030824;28;20203;-74
2022/01/07 01:12:51;;;;;;;8.60;3.73;;;0.50;99.90;;;;;;5029795;28;20667;-74
2022/01/07 01:15:22;;;;;;;11.43;4.03;;;0.50;99.90;;;;;;5029746;28;20203;-74
2022/01/07 01:17:49;;;;;;;11.10;3.87;;;0.50;99.90;;;;;;5023634;28;20628;-75
2022/01/07 01:20:14;;;;;;;15.50;4.33;;;0.50;99.90;;;;;;5029710;28;20202;-74
2022/01/07 01:22:40;;;;;;;15.20;5.00;;;0.50;99.90;;;;;;5029222;28;20264;-74
2022/01/07 01:25:07;;;;;;;12.20;4.50;;;0.50;99.90;;;;;;5030060;28;20247;-74
2022/01/07 01:27:33;;;;;;;16.80;4.43;;;0.40;99.90;;;;;;5031167;28;20216;-74
2022/01/07 01:30:00;;;;;;;10.30;4.07;;;0.40;99.90;;;;;;5030290;28;20177;-75
2022/01/07 01:32:26;;;;;;;8.77;3.87;;;0.40;99.90;;;;;;5031193;28;20280;-74
2022/01/07 01:34:51;;;;;;;12.93;3.77;;;0.40;99.90;;;;;;5031219;28;20215;-75
2022/01/07 01:37:17;;;;;;;13.67;3.97;;;0.40;99.90;;;;;;5031174;28;20257;-74
2022/01/07 01:39:43;;;;;;;10.83;4.10;;;0.40;99.90;;;;;;5028996;28;20208;-75
2022/01/07 01:42:09;;;;;;;6.17;3.97;;;0.50;99.90;;;;;;5032042;28;20547;-74
2022/01/07 01:44:34;;;;;;;12.50;4.17;;;0.40;99.90;;;;;;5027664;28;20689;-73
2022/01/07 01:47:02;;;;;;;9.00;4.60;;;0.40;99.90;;;;;;5020143;28;20243;-75
2022/01/07 01:49:28;;;;;;;15.47;4.33;;;0.40;99.90;;;;;;5028570;28;20207;-75
2022/01/07 01:51:54;;;;;;;11.33;4.00;;;0.40;99.90;;;;;;5031359;28;20209;-75
2022/01/07 01:54:20;;;;;;;10.00;4.00;;;0.40;99.90;;;;;;5032423;28;20185;-76
2022/01/07 01:56:45;;;;;;;15.83;4.77;;;0.40;99.90;;;;;;5032620;28;20178;-75
2022/01/07 01:59:11;;;;;;;13.27;4.13;;;0.40;99.90;;;;;;5042036;28;20215;-74
2022/01/07 02:01:38;;;;;;;15.37;4.73;;;0.40;99.90;;;;;;5044236;28;20215;-74
2022/01/07 02:04:04;;;;;;;14.97;4.57;;;0.40;99.90;;;;;;5031811;28;20735;-74
2022/01/07 02:06:30;;;;;;;13.13;5.13;;;0.40;99.90;;;;;;5029004;28;20350;-72
2022/01/07 02:08:55;;;;;;;13.47;5.13;;;0.40;99.90;;;;;;5030769;28;20566;-73
2022/01/07 02:11:21;;;;;;;15.00;5.77;;;0.40;99.90;;;;;;5031525;28;20204;-74
2022/01/07 02:13:48;;;;;;;15.40;5.03;;;0.30;99.90;;;;;;5033120;28;20265;-74
2022/01/07 02:16:15;;;;;;;16.57;5.83;;;0.30;99.90;;;;;;5032769;28;20706;-73
2022/01/07 02:18:42;;;;;;;14.33;5.53;;;0.20;99.90;;;;;;5024786;28;20283;-74
2022/01/07 02:21:08;;;;;;;19.00;5.93;;;0.20;99.90;;;;;;5033344;28;20667;-74
2022/01/07 02:23:33;;;;;;;14.70;5.77;;;0.20;99.90;;;;;;5032913;28;20222;-74
2022/01/07 02:26:00;;;;;;;24.97;6.47;;;0.20;99.90;;;;;;5033763;28;20214;-74
2022/01/07 02:28:26;;;;;;;15.43;6.40;;;0.20;99.90;;;;;;5032293;28;20291;-75
2022/01/07 02:30:52;;;;;;;12.17;5.23;;;0.20;99.90;;;;;;5033726;28;20569;-74
2022/01/07 02:33:18;;;;;;;16.83;6.37;;;0.20;99.90;;;;;;5034749;28;20188;-75
2022/01/07 02:35:45;;;;;;;12.97;5.90;;;0.20;99.90;;;;;;5032788;28;20197;-74
2022/01/07 02:38:14;;;;;;;18.67;6.30;;;0.20;99.90;;;;;;5032352;28;20214;-74
2022/01/07 02:40:40;;;;;;;14.27;5.97;;;0.20;99.90;;;;;;5031984;28;20215;-74
2022/01/07 02:43:06;;;;;;;15.23;5.30;;;0.20;99.90;;;;;;5032525;28;20207;-74
2022/01/07 02:45:31;;;;;;;19.03;6.30;;;0.20;99.90;;;;;;5031701;28;20243;-74
2022/01/07 02:47:59;;;;;;;13.83;5.37;;;0.20;99.90;;;;;;5008121;28;20178;-74
2022/01/07 02:50:34;;;;;;;14.87;6.30;;;0.30;99.90;;;;;;5033391;28;20652;-74
2022/01/07 02:53:00;;;;;;;19.97;6.43;;;0.30;99.90;;;;;;5033500;28;20201;-74
2022/01/07 02:55:27;;;;;;;11.83;5.40;;;0.30;99.90;;;;;;5031721;28;20205;-74
2022/01/07 02:57:52;;;;;;;14.23;6.43;;;0.30;99.90;;;;;;5032892;28;20748;-74
2022/01/07 03:00:19;;;;;;;19.17;6.23;;;0.30;99.90;;;;;;5031767;28;20225;-74
2022/01/07 03:02:46;;;;;;;12.50;6.57;;;0.30;99.90;;;;;;5032188;28;20232;-74
2022/01/07 03:05:13;;;;;;;14.30;6.03;;;0.40;99.90;;;;;;5031859;28;20286;-75
2022/01/07 03:07:39;;;;;;;14.07;6.00;;;0.40;99.90;;;;;;5031526;28;20228;-75
2022/01/07 03:10:06;;;;;;;23.53;6.73;;;0.30;99.90;;;;;;5031752;28;20207;-74
2022/01/07 03:12:33;;;;;;;16.67;6.73;;;0.30;99.90;;;;;;5031653;28;20217;-74
2022/01/07 03:14:58;;;;;;;14.27;6.27;;;0.30;99.90;;;;;;5032181;28;20222;-74
2022/01/07 03:17:24;;;;;;;18.77;6.27;;;0.30;99.90;;;;;;5023792;28;20208;-74
2022/01/07 03:19:49;;;;;;;13.67;6.60;;;0.30;99.90;;;;;;5031294;28;20202;-74
2022/01/07 03:22:15;;;;;;;12.70;6.30;;;0.30;99.90;;;;;;5030095;28;20251;-74
2022/01/07 03:24:40;;;;;;;13.33;5.13;;;0.30;99.90;;;;;;5031453;28;20219;-74
2022/01/07 03:27:08;;;;;;;13.63;6.50;;;0.30;99.90;;;;;;5023789;28;20628;-74
2022/01/07 03:29:34;;;;;;;14.90;5.80;;;0.30;99.90;;;;;;5032608;28;20267;-74
2022/01/07 03:32:00;;;;;;;12.03;5.90;;;0.20;99.90;;;;;;5031397;28;20197;-74
2022/01/07 03:34:25;;;;;;;17.60;6.07;;;0.20;99.90;;;;;;5031758;28;20208;-74
2022/01/07 03:36:51;;;;;;;12.07;5.13;;;0.20;99.90;;;;;;5015560;28;20567;-74
2022/01/07 03:39:16;;;;;;;12.47;5.40;;;0.20;99.90;;;;;;5032283;28;20169;-74
2022/01/07 03:41:42;;;;;;;14.37;5.63;;;0.20;99.90;;;;;;5031298;28;20189;-74
2022/01/07 03:44:08;;;;;;;11.57;5.13;;;0.20;99.90;;;;;;5031143;28;20201;-74
2022/01/07 03:46:33;;;;;;;12.67;5.87;;;0.20;99.90;;;;;;5031753;28;20215;-74
2022/01/07 03:48:59;;;;;;;11.43;5.43;;;0.20;99.90;;;;;;5032263;28;20216;-75
2022/01/07 03:51:24;;;;;;;11.23;5.20;;;0.20;99.90;;;;;;5031923;28;20221;-73
2022/01/07 03:53:50;;;;;;;12.53;6.00;;;0.20;99.90;;;;;;5002947;28;20175;-74
2022/01/07 03:56:18;;;;;;;15.10;5.50;;;0.20;99.90;;;;;;4994662;28;20317;-75
2022/01/07 03:58:45;;;;;;;13.53;5.73;;;0.20;99.90;;;;;;5030399;28;20239;-74
2022/01/07 04:01:10;;;;;;;9.53;4.90;;;0.20;99.90;;;;;;5030669;28;20318;-74
2022/01/07 04:03:36;;;;;;;13.80;5.13;;;0.20;99.90;;;;;;5032014;28;20768;-75
2022/01/07 04:06:01;;;;;;;11.97;5.90;;;0.20;99.90;;;;;;5026755;28;20288;-74
2022/01/07 04:08:27;;;;;;;12.87;5.80;;;0.20;99.90;;;;;;5011377;28;20319;-74
2022/01/07 04:10:53;;;;;;;14.70;5.27;;;0.20;99.90;;;;;;5031941;28;20207;-74
2022/01/07 04:13:18;;;;;;;11.43;5.00;;;0.30;99.90;;;;;;5031894;28;20220;-74
2022/01/07 04:15:44;;;;;;;17.10;5.53;;;0.30;99.90;;;;;;5030236;28;20216;-74
2022/01/07 04:18:09;;;;;;;14.90;5.63;;;0.30;99.90;;;;;;5032064;28;20179;-74
2022/01/07 04:20:36;;;;;;;9.97;5.20;;;0.30;99.90;;;;;;4997379;28;20207;-74
2022/01/07 04:23:04;;;;;;;10.23;5.37;;;0.30;99.90;;;;;;5031307;28;20281;-73
2022/01/07 04:25:30;;;;;;;17.70;6.30;;;0.30;99.90;;;;;;5032743;28;20208;-73
2022/01/07 04:27:59;;;;;;;11.73;5.30;;;0.30;99.90;;;;;;5031461;28;20202;-74
2022/01/07 04:30:27;;;;;;;11.73;5.30;;;0.40;99.90;;;;;;5031334;28;20264;-74
2022/01/07 04:32:54;;;;;;;14.83;5.37;;;0.40;99.90;;;;;;5031316;28;20294;-74
2022/01/07 04:35:20;;;;;;;9.27;5.40;;;0.40;99.90;;;;;;5031520;28;20268;-74
2022/01/07 04:37:46;;;;;;;12.10;5.60;;;0.40;99.90;;;;;;5025903;28;20557;-74
2022/01/07 04:40:13;;;;;;;12.37;6.17;;;0.40;99.90;;;;;;5000388;28;20211;-74
2022/01/07 04:42:39;;;;;;;14.60;5.03;;;0.40;99.90;;;;;;5030451;28;20222;-75
2022/01/07 04:45:06;;;;;;;9.47;4.60;;;0.40;99.90;;;;;;5068172;23;20631;-69
2022/01/07 04:47:35;;;;;;;11.67;5.53;;;0.50;99.90;;;;;;5070650;28;20762;-69
2022/01/07 04:50:01;;;;;;;11.53;5.23;;;0.50;99.90;;;;;;5069064;28;20201;-71
2022/01/07 04:52:26;;;;;;;13.03;5.70;;;0.50;99.90;;;;;;5070776;28;20200;-71
2022/01/07 04:54:52;;;;;;;13.10;5.13;;;0.60;99.90;;;;;;5053077;28;20201;-71
2022/01/07 04:57:17;;;;;;;10.07;5.33;;;0.60;99.90;;;;;;5052703;28;20205;-71
2022/01/07 04:59:43;;;;;;;10.67;5.20;;;0.60;99.90;;;;;;5070972;28;20582;-71
2022/01/07 05:02:08;;;;;;;10.17;4.63;;;0.50;99.90;;;;;;5052662;28;20213;-71
2022/01/07 05:04:34;;;;;;;9.73;5.40;;;0.60;99.90;;;;;;5052785;28;20695;-71
2022/01/07 05:06:59;;;;;;;9.50;5.47;;;0.60;99.90;;;;;;5055577;28;20201;-70
2022/01/07 05:09:25;;;;;;;10.17;5.47;;;0.60;99.90;;;;;;5052432;28;20178;-71
2022/01/07 05:11:52;;;;;;;12.57;5.33;;;0.60;99.90;;;;;;5052878;28;20262;-71
2022/01/07 05:14:19;;;;;;;11.40;5.77;;;0.60;99.90;;;;;;5070824;28;20681;-71
2022/01/07 05:16:44;;;;;;;11.10;5.30;;;0.70;99.90;;;;;;5052126;28;20263;-70
2022/01/07 05:19:11;;;;;;;9.50;4.90;;;0.70;99.90;;;;;;5070453;28;20213;-70
2022/01/07 05:21:38;;;;;;;9.23;4.27;;;0.70;99.90;;;;;;5052085;28;20324;-70
2022/01/07 05:24:04;;;;;;;7.33;4.53;;;0.60;99.90;;;;;;5071155;28;20178;-71
2022/01/07 05:26:30;;;;;;;11.47;5.03;;;0.70;99.90;;;;;;5069738;28;20705;-70
2022/01/07 05:28:56;;;;;;;9.77;4.60;;;0.70;99.90;;;;;;5070417;28;20226;-71
2022/01/07 05:31:22;;;;;;;14.07;5.00;;;0.70;99.90;;;;;;5052164;28;20215;-71
2022/01/07 05:33:49;;;;;;;9.07;4.30;;;0.70;99.90;;;;;;5070516;28;20670;-71
2022/01/07 05:36:15;;;;;;;10.93;4.30;;;0.70;99.90;;;;;;5050404;28;20192;-71
2022/01/07 05:38:40;;;;;;;14.00;5.13;;;0.70;99.90;;;;;;5070636;28;20592;-72
2022/01/07 05:41:06;;;;;;;9.70;4.40;;;0.70;99.90;;;;;;5051937;28;20244;-70
2022/01/07 05:43:31;;;;;;;13.63;4.50;;;0.70;99.90;;;;;;5070340;28;20639;-71
2022/01/07 05:45:57;;;;;;;9.53;4.03;;;0.80;99.90;;;;;;5053995;28;20219;-72
2022/01/07 05:48:23;;;;;;;10.03;4.23;;;0.80;99.90;;;;;;5056060;28;20528;-70
2022/01/07 05:50:49;;;;;;;11.70;4.63;;;0.70;99.90;;;;;;5057007;28;20204;-71
2022/01/07 05:53:14;;;;;;;10.23;4.30;;;0.70;99.90;;;;;;5056253;28;20209;-71
2022/01/07 05:55:40;;;;;;;8.90;4.40;;;0.70;99.90;;;;;;5059174;28;20228;-71
2022/01/07 05:58:05;;;;;;;9.83;4.10;;;0.80;99.90;;;;;;5074070;28;20293;-72
2022/01/07 06:00:31;;;;;;;9.40;4.13;;;0.80;99.90;;;;;;5074159;28;23651;-71
2022/01/07 06:02:56;;;;;;;9.47;4.40;;;0.80;99.90;;;;;;5057000;28;20173;-70
2022/01/07 06:05:22;;;;;;;9.27;4.17;;;0.80;99.90;;;;;;5074083;28;20682;-70
2022/01/07 06:07:48;;;;;;;12.53;4.73;;;0.80;99.90;;;;;;5055876;28;20222;-70
2022/01/07 06:10:13;;;;;;;9.97;3.80;;;0.80;99.90;;;;;;5056028;28;20673;-70
2022/01/07 06:12:39;;;;;;;10.73;4.27;;;0.80;99.90;;;;;;5074310;28;20304;-71
2022/01/07 06:15:05;;;;;;;9.10;4.20;;;0.80;99.90;;;;;;5056584;28;20273;-71
2022/01/07 06:17:31;;;;;;;9.13;4.60;;;0.80;99.90;;;;;;5055681;28;20207;-70
2022/01/07 06:19:56;;;;;;;7.43;4.17;;;0.80;99.90;;;;;;5075770;28;20202;-70
2022/01/07 06:22:22;;;;;;;7.53;4.30;;;0.90;99.90;;;;;;5057763;28;20258;-71
2022/01/07 06:24:48;;;;;;;10.10;4.57;;;0.90;99.90;;;;;;5077280;28;20290;-71
2022/01/07 06:27:13;;;;;;;9.03;4.20;;;0.80;99.90;;;;;;5058775;28;20180;-70
2022/01/07 06:29:39;;;;;;;12.07;4.67;;;0.80;99.90;;;;;;5058632;28;20195;-70
2022/01/07 06:32:05;;;;;;;11.43;4.07;;;0.80;99.90;;;;;;5075714;28;20192;-71
2022/01/07 06:34:31;;;;;;;8.10;3.97;;;0.80;99.90;;;;;;5060245;28;20198;-70
2022/01/07 06:36:58;;;;;;;13.63;4.57;;;0.80;99.90;;;;;;5057535;28;20205;-71
2022/01/07 06:39:24;;;;;;;11.67;4.17;;;0.90;99.90;;;;;;5055395;28;20177;-70
2022/01/07 06:41:50;;;;;;;9.90;4.30;;;0.90;99.90;;;;;;5073808;28;20199;-70
2022/01/07 06:44:17;;;;;;;9.23;4.27;;;0.90;99.90;;;;;;5073348;28;20684;-71
2022/01/07 06:46:42;;;;;;;11.20;4.33;;;0.90;99.90;;;;;;5054769;28;20322;-71
2022/01/07 06:49:08;;;;;;;12.47;4.47;;;0.90;99.90;;;;;;5073349;28;20285;-71
2022/01/07 06:51:33;;;;;;;8.23;4.23;;;0.90;99.90;;;;;;5073199;28;20210;-71
2022/01/07 06:53:59;;;;;;;12.80;4.33;;;0.90;99.90;;;;;;5073872;28;20163;-72
2022/01/07 06:56:27;;;;;;;13.90;4.33;;;0.90;99.90;;;;;;5088210;28;20632;-71
2022/01/07 06:58:53;;;;;;;5.57;3.87;;;0.90;99.90;;;;;;5055138;28;20232;-71
2022/01/07 07:01:19;;;;;;;9.17;3.87;;;1.00;99.90;;;;;;5054762;28;20587;-71
2022/01/07 07:03:45;;;;;;;9.60;4.20;;;1.00;99.90;;;;;;5055159;28;20199;-71
2022/01/07 07:06:12;;;;;;;12.07;3.90;;;1.00;99.90;;;;;;5073447;28;20202;-72
2022/01/07 07:08:37;;;;;;;9.77;4.20;;;0.90;99.90;;;;;;5072895;28;20567;-71
2022/01/07 07:11:03;;;;;;;10.03;4.20;;;0.90;99.90;;;;;;5054884;28;20290;-71
2022/01/07 07:13:28;;;;;;;7.63;3.77;;;0.90;99.90;;;;;;5072891;28;20214;-72
2022/01/07 07:15:54;;;;;;;8.20;4.03;;;1.00;99.90;;;;;;5054647;28;20211;-71
2022/01/07 07:18:19;;;;;;;8.23;3.70;;;1.00;99.90;;;;;;5054481;28;20645;-71
2022/01/07 07:20:45;;;;;;;12.73;4.37;;;1.00;99.90;;;;;;5054833;28;20181;-72
2022/01/07 07:23:10;;;;;;;13.20;4.77;;;1.00;99.90;;;;;;5054517;28;20217;-71
2022/01/07 07:25:36;;;;;;;11.53;4.60;;;1.10;99.90;;;;;;5072464;28;20559;-71
2022/01/07 07:28:01;;;;;;;13.90;4.47;;;1.00;99.90;;;;;;5072284;28;20214;-71
2022/01/07 07:30:34;;;;;;;14.03;4.50;;;1.00;99.90;;;;;;5054281;28;20659;-71
2022/01/07 07:33:18;;;;;;;6.40;3.60;;;1.10;99.90;;;;;;5055054;28;20265;-71
2022/01/07 07:38:12;;;;;;;11.30;4.23;;;1.10;99.90;;;;;;5072385;28;20210;-70
2022/01/07 07:40:37;;;;;;;10.23;4.43;;;1.10;99.90;;;;;;5053885;28;20568;-71
2022/01/07 07:43:03;;;;;;;10.00;4.30;;;1.10;99.90;;;;;;5054332;28;20248;-71
2022/01/07 07:45:28;;;;;;;10.30;4.10;;;1.10;99.90;;;;;;5054084;28;20218;-72
2022/01/07 07:47:54;;;;;;;14.07;4.50;;;1.20;99.90;;;;;;5054486;28;20249;-71
2022/01/07 07:50:19;;;;;;;15.10;5.00;;;1.10;99.90;;;;;;5054277;28;20211;-71
2022/01/07 07:52:45;;;;;;;11.53;4.80;;;1.20;99.90;;;;;;5054156;28;20562;-71
2022/01/07 07:55:11;;;;;;;7.67;4.33;;;1.20;99.90;;;;;;5054085;28;20230;-70
2022/01/07 07:57:36;;;;;;;9.37;5.13;;;1.20;99.90;;;;;;5053810;28;20210;-70
2022/01/07 08:00:04;;;;;;;11.67;3.83;;;1.30;99.90;;;;;;5072508;28;20179;-71
2022/01/07 08:02:30;;;;;;;9.73;3.90;;;1.30;99.90;;;;;;5071637;28;20223;-71
2022/01/07 08:04:57;;;;;;;13.20;4.10;;;1.40;99.90;;;;;;5054043;28;20212;-71
2022/01/07 08:07:22;;;;;;;9.83;4.37;;;1.40;99.90;;;;;;5053178;28;20230;-70
2022/01/07 08:09:50;;;;;;;9.97;3.77;;;1.40;99.90;;;;;;5053341;28;20617;-71
2022/01/07 08:12:19;;;;;;;9.03;3.90;;;1.40;99.90;;;;;;5053490;28;20184;-70
2022/01/07 08:17:30;;;;;;;8.40;4.07;;;1.50;99.90;;;;;;5071446;28;20266;-71
2022/01/07 08:19:55;;;;;;;12.03;3.90;;;1.50;99.90;;;;;;5053453;28;20579;-71
2022/01/07 08:22:21;;;;;;;9.30;4.20;;;1.60;99.90;;;;;;5053093;28;20581;-69
2022/01/07 08:24:46;;;;;;;9.37;4.23;;;1.60;99.90;;;;;;5053477;28;20212;-71
2022/01/07 08:27:12;;;;;;;13.23;4.10;;;1.70;99.90;;;;;;5053634;28;20230;-71
2022/01/07 08:29:39;;;;;;;9.73;4.23;;;1.70;99.90;;;;;;5071230;28;20260;-71
2022/01/07 08:34:53;;;;;;;10.37;4.30;;;1.70;99.90;;;;;;5063878;28;20236;-71
2022/01/07 08:37:27;;;;;;;9.33;4.03;;;1.80;99.90;;;;;;5053143;28;20256;-71
2022/01/07 08:39:54;;;;;;;9.77;4.13;;;1.80;99.90;;;;;;5053190;28;20195;-71
2022/01/07 08:42:22;;;;;;;13.87;4.43;;;1.90;99.90;;;;;;5052798;28;20204;-71
2022/01/07 08:44:51;;;;;;;11.00;3.53;;;1.80;99.90;;;;;;5063727;28;20621;-71
2022/01/07 08:47:17;;;;;;;6.73;3.80;;;1.80;99.90;;;;;;5052992;28;20245;-72
2022/01/07 08:49:42;;;;;;;10.87;4.20;;;1.90;99.90;;;;;;5070693;28;20258;-71
2022/01/07 08:52:08;;;;;;;7.37;4.20;;;1.90;99.90;;;;;;5070875;28;20199;-71
2022/01/07 08:54:33;;;;;;;11.53;4.00;;;1.90;99.90;;;;;;5052935;28;20207;-71
2022/01/07 08:56:59;;;;;;;12.03;3.83;;;1.90;99.90;;;;;;5071240;28;20751;-71
2022/01/07 08:59:24;;;;;;;9.37;3.93;;;1.90;99.90;;;;;;5052687;28;20206;-70
2022/01/07 09:01:50;;;;;;;8.63;4.17;;;2.00;99.90;;;;;;5052730;28;20255;-71
2022/01/07 09:04:15;;;;;;;8.30;3.97;;;2.00;99.90;;;;;;5053143;28;20226;-70
2022/01/07 09:06:41;;;;;;;9.37;4.30;;;2.00;99.90;;;;;;5052397;28;20206;-70
2022/01/07 09:09:06;;;;;;;13.97;4.27;;;2.00;99.90;;;;;;5053211;28;20588;-71
2022/01/07 09:11:32;;;;;;;11.27;3.90;;;2.10;99.90;;;;;;5052444;28;20624;-71
2022/01/07 09:13:58;;;;;;;12.17;4.13;;;2.20;99.90;;;;;;5052857;28;20571;-71
2022/01/07 09:16:25;;;;;;;10.30;4.10;;;2.30;99.90;;;;;;5052326;28;20214;-70
2022/01/07 09:18:50;;;;;;;12.17;4.70;;;2.30;99.90;;;;;;5052657;28;20199;-71
2022/01/07 09:21:17;;;;;;;10.33;4.27;;;2.40;99.90;;;;;;5052462;28;20582;-71
2022/01/07 09:23:43;;;;;;;7.50;4.30;;;2.50;99.90;;;;;;5053204;28;20171;-71
2022/01/07 09:26:10;;;;;;;8.70;4.53;;;2.50;99.90;;;;;;5052247;28;20293;-71
2022/01/07 09:28:36;;;;;;;9.17;4.17;;;2.60;99.90;;;;;;5052100;28;20213;-72
2022/01/07 09:31:02;;;;;;;13.17;4.23;;;2.60;99.90;;;;;;5052336;28;20198;-71
2022/01/07 09:33:28;;;;;;;9.27;4.43;;;2.60;99.90;;;;;;5052316;28;20552;-71
2022/01/07 09:35:53;;;;;;;15.27;4.83;;;2.60;99.90;;;;;;5052915;28;20232;-71
2022/01/07 09:38:21;;;;;;;9.80;4.60;;;2.60;99.90;;;;;;5070185;28;20615;-73
2022/01/07 09:40:46;;;;;;;11.53;4.70;;;2.60;99.90;;;;;;5070669;28;20575;-71
2022/01/07 09:43:14;;;;;;;12.47;4.87;;;2.70;99.90;;;;;;5070545;28;20213;-72
2022/01/07 09:45:39;;;;;;;10.23;4.77;;;2.70;99.90;;;;;;5052147;28;20238;-71
2022/01/07 09:48:06;;;;;;;7.40;3.93;;;2.80;99.90;;;;;;5070752;28;20274;-72
2022/01/07 09:50:33;;;;;;;12.40;4.50;;;2.80;99.90;;;;;;5052151;28;20584;-73
2022/01/07 09:53:04;;;;;;;9.20;3.87;;;2.90;99.90;;;;;;5052784;28;20303;-72
2022/01/07 09:55:29;;;;;;;12.43;4.77;;;3.10;99.90;;;;;;5049949;28;20301;-72
2022/01/07 09:57:55;;;;;;;10.40;4.77;;;3.20;99.90;;;;;;5051946;28;20202;-72
2022/01/07 10:00:20;;;;;;;9.77;4.50;;;3.10;99.90;;;;;;5052254;28;20262;-72
2022/01/07 10:03:03;;;;;;;10.57;4.20;;;3.20;99.90;;;;;;5044635;28;20230;-72
2022/01/07 10:05:30;;;;;;;40.70;8.57;;;3.20;99.90;;;;;;5052034;28;20268;-72
2022/01/07 10:07:56;;;;;;;34.00;7.63;;;3.10;99.90;;;;;;5051981;28;20203;-72
2022/01/07 10:10:26;;;;;;;20.40;4.57;;;3.20;99.90;;;;;;5052101;28;20210;-71
2022/01/07 10:13:04;;;;;;;36.30;8.40;;;3.40;99.90;;;;;;5052161;28;20611;-72
2022/01/07 10:15:38;;;;;;;18.30;5.73;;;3.80;99.90;;;;;;5051701;28;20203;-72
2022/01/07 10:18:13;;;;;;;24.57;6.43;;;4.10;99.90;;;;;;5070505;28;20669;-72
2022/01/07 10:20:42;;;;;;;29.07;6.83;;;4.20;99.90;;;;;;5070205;28;20819;-72
2022/01/07 10:23:12;;;;;;;10.37;4.53;;;4.20;99.90;;;;;;5069908;28;20261;-72
2022/01/07 10:25:46;;;;;;;63.63;10.37;;;4.10;99.90;;;;;;5069550;28;20216;-72
2022/01/07 10:28:17;;;;;;;29.30;6.23;;;4.00;99.90;;;;;;5069876;28;20219;-72
2022/01/07 10:30:46;;;;;;;11.43;4.47;;;4.10;99.90;;;;;;5069736;28;20257;-72
2022/01/07 10:33:24;;;;;;;14.80;4.40;;;4.10;99.90;;;;;;5056208;28;20182;-71
2022/01/07 10:36:07;;;;;;;10.37;4.63;;;3.70;99.90;;;;;;5039950;28;20206;-71
2022/01/07 10:38:57;;;;;;;9.53;4.60;;;3.80;99.90;;;;;;5055115;28;20207;-71
2022/01/07 10:41:23;;;;;;;13.73;4.20;;;4.00;99.90;;;;;;5054859;28;20223;-72
2022/01/07 10:43:50;;;;;;;17.63;5.43;;;4.00;99.90;;;;;;5055684;28;20200;-72
2022/01/07 10:46:19;;;;;;;17.07;4.77;;;4.00;99.90;;;;;;5055533;22;20237;-70
2022/01/07 10:48:55;;;;;;;12.07;5.23;;;4.00;99.90;;;;;;5015117;28;20206;-70
2022/01/07 10:51:30;;;;;;;9.20;4.33;;;3.90;99.90;;;;;;5032070;28;20187;-70
2022/01/07 10:53:58;;;;;;;17.03;5.60;;;3.90;99.90;;;;;;5032875;28;20518;-70
2022/01/07 10:56:32;;;;;;;16.20;5.03;;;3.90;99.90;;;;;;5014958;28;20698;-70
2022/01/07 10:59:15;;;;;;;12.43;5.00;;;3.80;99.90;;;;;;5004282;28;20203;-70
2022/01/07 11:01:42;;;;;;;10.70;3.90;;;3.90;99.90;;;;;;5006439;28;20247;-69
2022/01/07 11:04:15;;;;;;;8.13;4.67;;;3.90;99.90;;;;;;5007999;28;20201;-70
2022/01/07 11:06:41;;;;;;;11.67;5.10;;;3.90;99.90;;;;;;5004358;28;20942;-70
2022/01/07 11:09:09;;;;;;;9.50;3.97;;;3.90;99.90;;;;;;5022367;28;20173;-70
2022/01/07 11:11:43;;;;;;;10.87;4.63;;;3.80;99.90;;;;;;5023206;28;20210;-69
2022/01/07 11:14:09;;;;;;;10.47;4.50;;;3.80;99.90;;;;;;5025200;28;20773;-70
2022/01/07 11:16:39;;;;;;;10.27;4.87;;;3.80;99.90;;;;;;5022506;28;20293;-70
2022/01/07 11:19:07;;;;;;;9.97;5.57;;;3.80;99.90;;;;;;5003327;28;20291;-70
2022/01/07 11:21:34;;;;;;;11.83;4.37;;;3.80;99.90;;;;;;5005243;28;20591;-70
2022/01/07 11:24:34;;;;;;;11.40;4.70;;;3.80;99.90;;;;;;5007713;28;20240;-70
2022/01/07 11:27:02;;;;;;;10.43;4.33;;;3.70;99.90;;;;;;5026824;28;20210;-70
2022/01/07 11:29:29;;;;;;;10.37;4.90;;;3.80;99.90;;;;;;5005570;28;20223;-70
2022/01/07 11:32:15;;;;;;;9.27;4.77;;;3.80;99.90;;;;;;5021713;28;20257;-70
2022/01/07 11:34:40;;;;;;;10.87;4.87;;;3.80;99.90;;;;;;5007601;28;21038;-70
2022/01/07 11:37:32;;;;;;;10.33;5.27;;;3.90;99.90;;;;;;5024608;28;20220;-70
2022/01/07 11:39:57;;;;;;;12.07;5.17;;;3.90;99.90;;;;;;5014956;28;20197;-70
2022/01/07 11:42:42;;;;;;;14.10;5.10;;;3.90;99.90;;;;;;5005768;28;20296;-69
2022/01/07 11:45:29;;;;;;;10.50;5.20;;;3.90;99.90;;;;;;5004088;28;20193;-70
2022/01/07 11:48:05;;;;;;;15.07;4.60;;;3.70;99.90;;;;;;5008310;28;20257;-69
2022/01/07 11:50:30;;;;;;;12.40;4.97;;;3.70;99.90;;;;;;5006807;28;20213;-70
2022/01/07 11:52:57;;;;;;;10.80;6.30;;;3.70;99.90;;;;;;5006556;28;20725;-70
2022/01/07 11:55:26;;;;;;;8.73;4.43;;;3.80;99.90;;;;;;5002099;28;20224;-69
2022/01/07 11:57:59;;;;;;;12.57;5.23;;;3.80;99.90;;;;;;5005817;28;20259;-70
2022/01/07 12:00:50;;;;;;;13.57;5.60;;;3.70;99.90;;;;;;5005903;28;20188;-69
2022/01/07 12:03:36;;;;;;;16.47;5.67;;;3.80;99.90;;;;;;5020760;28;20657;-70
2022/01/07 12:06:26;;;;;;;15.77;5.50;;;3.80;99.90;;;;;;5003705;28;20237;-70
2022/01/07 12:09:08;;;;;;;8.73;4.80;;;3.70;99.90;;;;;;4998476;28;20605;-70
2022/01/07 12:11:38;;;;;;;10.67;5.20;;;3.70;99.90;;;;;;5006021;28;20235;-69
2022/01/07 12:14:10;;;;;;;14.50;5.30;;;3.70;99.90;;;;;;5026368;28;20198;-69
2022/01/07 12:16:36;;;;;;;10.67;5.07;;;3.70;99.90;;;;;;5004318;28;20239;-69
2022/01/07 12:19:36;;;;;;;16.33;5.60;;;3.70;99.90;;;;;;5006008;28;20201;-70
2022/01/07 12:22:06;;;;;;;8.50;5.30;;;3.60;99.90;;;;;;4993200;28;20319;-70
2022/01/07 12:24:32;;;;;;;13.67;6.07;;;3.60;99.90;;;;;;5012636;28;20230;-69
2022/01/07 12:27:11;;;;;;;12.73;5.30;;;3.60;99.90;;;;;;5002707;28;20561;-70
2022/01/07 12:29:39;;;;;;;12.07;5.20;;;3.60;99.90;;;;;;5012601;28;20288;-69
2022/01/07 12:32:06;;;;;;;10.60;6.13;;;3.70;99.90;;;;;;5005963;28;20250;-70
2022/01/07 12:34:35;;;;;;;13.57;5.47;;;3.70;99.90;;;;;;5022183;28;20212;-69
2022/01/07 12:37:05;;;;;;;10.10;5.70;;;3.70;99.90;;;;;;5002167;28;20205;-69
2022/01/07 12:39:34;;;;;;;15.80;5.87;;;3.60;99.90;;;;;;5020940;28;20662;-70
2022/01/07 12:41:59;;;;;;;12.80;5.90;;;3.60;99.90;;;;;;5023949;28;20231;-70
2022/01/07 12:44:32;;;;;;;13.93;5.70;;;3.50;99.90;;;;;;5005427;28;20210;-69
2022/01/07 12:46:58;;;;;;;14.87;6.10;;;3.60;99.90;;;;;;5001963;28;20296;-70
2022/01/07 12:49:34;;;;;;;15.27;8.07;;;3.70;99.90;;;;;;5002480;28;20632;-69
2022/01/07 12:52:18;;;;;;;12.77;5.73;;;3.60;99.90;;;;;;5005461;28;20207;-69
2022/01/07 12:54:54;;;;;;;12.03;5.93;;;3.70;99.90;;;;;;5001979;28;20252;-69
2022/01/07 12:57:28;;;;;;;11.60;6.27;;;3.70;99.90;;;;;;5010038;28;20633;-70
2022/01/07 13:00:06;;;;;;;9.23;5.03;;;3.60;99.90;;;;;;5001707;28;20175;-69
2022/01/07 13:02:32;;;;;;;9.97;6.20;;;3.50;99.90;;;;;;5011684;28;20295;-70